RUK1133 EGPH-EGHH
Flight info
| Callsign | RUK1133 |
|---|---|
| Flight time | 1h 12m |
| Altitude | 23000 |
| Route | GOSAM P600 FENIK L612 ELBUS/N0366F250 L612 NAVSO/N0412F310 DCT ADZOP DCT EGTOC DCT KEPAD L151 PEPUL/N0354F230 Y322 BUGUP |
| Aircraft | B738/M-SDE1E2E3FGIJ1LRWY/SB1 |
Departure
| Time | 2026-04-21 18:15 |
|---|---|
| Airport | Edinburgh Airport (EGPH) |
Arrival
| Time | 2026-04-21 19:27 |
|---|---|
| Airport | Bournemouth Airport (EGHH) |
| Time | Latitude | Longitude | Altitude | Speed | Heading |
|---|---|---|---|---|---|
| 2026-04-21 17:43 | 55.94813 | -3.35746 | 115 ft | 0 kts | 208° |
| 2026-04-21 18:06 | 55.94828 | -3.35733 | 111 ft | 3 kts | 208° |
| 2026-04-21 18:06 | 55.94845 | -3.35716 | 115 ft | 2 kts | 208° |
| 2026-04-21 18:06 | 55.94861 | -3.35695 | 115 ft | 3 kts | 242° |
| 2026-04-21 18:06 | 55.94867 | -3.35660 | 111 ft | 3 kts | 277° |
| 2026-04-21 18:07 | 55.94862 | -3.35630 | 113 ft | 0 kts | 298° |
| 2026-04-21 18:09 | 55.94863 | -3.35632 | 115 ft | 1 kts | 298° |
| 2026-04-21 18:09 | 55.94870 | -3.35654 | 112 ft | 6 kts | 299° |
| 2026-04-21 18:09 | 55.94917 | -3.35809 | 115 ft | 11 kts | 301° |
| 2026-04-21 18:10 | 55.94982 | -3.35857 | 113 ft | 11 kts | 15° |
| 2026-04-21 18:10 | 55.95049 | -3.35851 | 115 ft | 11 kts | 313° |
| 2026-04-21 18:10 | 55.95085 | -3.35969 | 114 ft | 11 kts | 295° |
| 2026-04-21 18:10 | 55.95116 | -3.36120 | 112 ft | 15 kts | 289° |
| 2026-04-21 18:11 | 55.95115 | -3.36333 | 115 ft | 20 kts | 243° |
| 2026-04-21 18:11 | 55.95046 | -3.36541 | 113 ft | 20 kts | 238° |
| 2026-04-21 18:11 | 55.94962 | -3.36789 | 113 ft | 27 kts | 239° |
| 2026-04-21 18:11 | 55.94855 | -3.37106 | 114 ft | 32 kts | 239° |
| 2026-04-21 18:12 | 55.94743 | -3.37438 | 111 ft | 30 kts | 239° |
| 2026-04-21 18:12 | 55.94637 | -3.37750 | 114 ft | 29 kts | 239° |
| 2026-04-21 18:12 | 55.94538 | -3.38043 | 113 ft | 27 kts | 239° |
| 2026-04-21 18:12 | 55.94444 | -3.38319 | 114 ft | 25 kts | 238° |
| 2026-04-21 18:13 | 55.94358 | -3.38571 | 112 ft | 21 kts | 238° |
| 2026-04-21 18:13 | 55.94301 | -3.38737 | 115 ft | 11 kts | 239° |
| 2026-04-21 18:13 | 55.94293 | -3.38860 | 111 ft | 11 kts | 307° |
| 2026-04-21 18:13 | 55.94353 | -3.38937 | 111 ft | 11 kts | 329° |
| 2026-04-21 18:14 | 55.94415 | -3.38964 | 113 ft | 3 kts | 57° |
| 2026-04-21 18:14 | 55.94508 | -3.38697 | 112 ft | 60 kts | 58° |
| 2026-04-21 18:14 | 55.94848 | -3.37699 | 111 ft | 125 kts | 58° |
| 2026-04-21 18:15 | 55.95358 | -3.36172 | 432 ft | 151 kts | 59° |
| 2026-04-21 18:15 | 55.95891 | -3.34617 | 1360 ft | 149 kts | 59° |
| 2026-04-21 18:15 | 55.96641 | -3.33180 | 1868 ft | 173 kts | 43° |
| 2026-04-21 18:15 | 55.97634 | -3.31677 | 2188 ft | 198 kts | 44° |
| 2026-04-21 18:16 | 55.98736 | -3.29922 | 2459 ft | 227 kts | 45° |
| 2026-04-21 18:16 | 56.00057 | -3.28216 | 3059 ft | 247 kts | 24° |
| 2026-04-21 18:16 | 56.01807 | -3.28149 | 3867 ft | 264 kts | 345° |
| 2026-04-21 18:16 | 56.03324 | -3.30041 | 4749 ft | 275 kts | 309° |
| 2026-04-21 18:17 | 56.04029 | -3.33226 | 5541 ft | 284 kts | 275° |
| 2026-04-21 18:17 | 56.03675 | -3.36695 | 6038 ft | 281 kts | 241° |
| 2026-04-21 18:17 | 56.02778 | -3.39837 | 6824 ft | 287 kts | 245° |
| 2026-04-21 18:17 | 56.02061 | -3.43147 | 7565 ft | 293 kts | 250° |
| 2026-04-21 18:18 | 56.01432 | -3.46673 | 8392 ft | 295 kts | 252° |
| 2026-04-21 18:18 | 56.00870 | -3.50229 | 9133 ft | 301 kts | 253° |
| 2026-04-21 18:18 | 56.00336 | -3.53855 | 9984 ft | 301 kts | 254° |
| 2026-04-21 18:18 | 55.99812 | -3.57504 | 10745 ft | 306 kts | 254° |
| 2026-04-21 18:19 | 55.99272 | -3.61277 | 11059 ft | 327 kts | 254° |
| 2026-04-21 18:19 | 55.98691 | -3.65334 | 11363 ft | 345 kts | 254° |
| 2026-04-21 18:19 | 55.98086 | -3.69554 | 11951 ft | 353 kts | 254° |
| 2026-04-21 18:19 | 55.97475 | -3.73806 | 12787 ft | 354 kts | 254° |
| 2026-04-21 18:20 | 55.96859 | -3.78087 | 13561 ft | 358 kts | 254° |
| 2026-04-21 18:20 | 55.96236 | -3.82405 | 14334 ft | 362 kts | 254° |
| 2026-04-21 18:20 | 55.95602 | -3.86788 | 15010 ft | 367 kts | 254° |
| 2026-04-21 18:20 | 55.94959 | -3.91208 | 15740 ft | 371 kts | 254° |
| 2026-04-21 18:21 | 55.94310 | -3.95660 | 16538 ft | 372 kts | 254° |
| 2026-04-21 18:21 | 55.93423 | -3.99998 | 17247 ft | 375 kts | 239° |
| 2026-04-21 18:21 | 55.91895 | -4.03766 | 17940 ft | 375 kts | 224° |
| 2026-04-21 18:21 | 55.89938 | -4.06817 | 18646 ft | 375 kts | 212° |
| 2026-04-21 18:22 | 55.87772 | -4.09433 | 19321 ft | 377 kts | 210° |
| 2026-04-21 18:22 | 55.86314 | -4.11142 | 19758 ft | 379 kts | 210° |
| 2026-04-21 18:22 | 55.84077 | -4.13775 | 20406 ft | 382 kts | 210° |
| 2026-04-21 18:22 | 55.81866 | -4.16420 | 21067 ft | 384 kts | 211° |
| 2026-04-21 18:23 | 55.79643 | -4.19104 | 21729 ft | 387 kts | 211° |
| 2026-04-21 18:23 | 55.77422 | -4.21819 | 22346 ft | 390 kts | 211° |
| 2026-04-21 18:23 | 55.75186 | -4.24580 | 22940 ft | 393 kts | 209° |
| 2026-04-21 18:23 | 55.72718 | -4.26453 | 23414 ft | 387 kts | 188° |
| 2026-04-21 18:24 | 55.70054 | -4.26603 | 23843 ft | 383 kts | 169° |
| 2026-04-21 18:24 | 55.67597 | -4.25428 | 24182 ft | 380 kts | 153° |
| 2026-04-21 18:24 | 55.65233 | -4.23235 | 24529 ft | 380 kts | 149° |
| 2026-04-21 18:24 | 55.62920 | -4.20908 | 24805 ft | 383 kts | 148° |
| 2026-04-21 18:25 | 55.60628 | -4.18583 | 25090 ft | 386 kts | 148° |
| 2026-04-21 18:25 | 55.58248 | -4.16196 | 25347 ft | 390 kts | 149° |
| 2026-04-21 18:25 | 55.55855 | -4.13828 | 25446 ft | 398 kts | 150° |
| 2026-04-21 18:25 | 55.53445 | -4.11469 | 25884 ft | 396 kts | 150° |
| 2026-04-21 18:26 | 55.51018 | -4.09106 | 26086 ft | 400 kts | 150° |
| 2026-04-21 18:26 | 55.48576 | -4.06731 | 26398 ft | 402 kts | 150° |
| 2026-04-21 18:26 | 55.46124 | -4.04352 | 26712 ft | 403 kts | 150° |
| 2026-04-21 18:26 | 55.43650 | -4.01952 | 26813 ft | 411 kts | 152° |
| 2026-04-21 18:27 | 55.41120 | -3.99503 | 26923 ft | 417 kts | 151° |
| 2026-04-21 18:27 | 55.38573 | -3.97039 | 27295 ft | 416 kts | 152° |
| 2026-04-21 18:27 | 55.36038 | -3.94589 | 27748 ft | 414 kts | 152° |
| 2026-04-21 18:27 | 55.33513 | -3.92152 | 28081 ft | 415 kts | 152° |
| 2026-04-21 18:28 | 55.30969 | -3.89701 | 28309 ft | 418 kts | 153° |
| 2026-04-21 18:28 | 55.28404 | -3.87233 | 28470 ft | 423 kts | 152° |
| 2026-04-21 18:28 | 55.25833 | -3.84763 | 28970 ft | 417 kts | 152° |
| 2026-04-21 18:28 | 55.23337 | -3.82370 | 29869 ft | 405 kts | 153° |
| 2026-04-21 18:29 | 55.20774 | -3.80314 | 30154 ft | 407 kts | 161° |
| 2026-04-21 18:29 | 55.15281 | -3.77286 | 30267 ft | 420 kts | 165° |
| 2026-04-21 18:29 | 55.12470 | -3.75825 | 30514 ft | 422 kts | 165° |
| 2026-04-21 18:30 | 55.09671 | -3.74358 | 30837 ft | 421 kts | 165° |
| 2026-04-21 18:30 | 55.06880 | -3.72875 | 31181 ft | 420 kts | 165° |
| 2026-04-21 18:30 | 55.04085 | -3.71373 | 31469 ft | 420 kts | 165° |
| 2026-04-21 18:31 | 54.98451 | -3.68322 | 31454 ft | 423 kts | 165° |
| 2026-04-21 18:31 | 54.92866 | -3.65285 | 31438 ft | 423 kts | 166° |
| 2026-04-21 18:32 | 54.87144 | -3.62190 | 31458 ft | 435 kts | 166° |
| 2026-04-21 18:32 | 54.81355 | -3.59062 | 31448 ft | 436 kts | 166° |
| 2026-04-21 18:33 | 54.75571 | -3.55945 | 31440 ft | 434 kts | 166° |
| 2026-04-21 18:33 | 54.69811 | -3.52851 | 31417 ft | 432 kts | 167° |
| 2026-04-21 18:34 | 54.64058 | -3.49772 | 31433 ft | 433 kts | 167° |
| 2026-04-21 18:34 | 54.58275 | -3.46689 | 31434 ft | 436 kts | 167° |
| 2026-04-21 18:35 | 54.53400 | -3.44095 | 31441 ft | 438 kts | 167° |
| 2026-04-21 18:35 | 54.46601 | -3.40488 | 31427 ft | 441 kts | 167° |
| 2026-04-21 18:36 | 54.40762 | -3.37399 | 31417 ft | 442 kts | 168° |
| 2026-04-21 18:36 | 54.34832 | -3.34272 | 31420 ft | 443 kts | 168° |
| 2026-04-21 18:37 | 54.28924 | -3.31167 | 31419 ft | 445 kts | 168° |
| 2026-04-21 18:37 | 54.23018 | -3.28068 | 31412 ft | 443 kts | 168° |
| 2026-04-21 18:38 | 54.17105 | -3.25280 | 31391 ft | 436 kts | 178° |
| 2026-04-21 18:38 | 54.11133 | -3.24366 | 31410 ft | 432 kts | 182° |
| 2026-04-21 18:39 | 54.05141 | -3.23525 | 31390 ft | 432 kts | 181° |
| 2026-04-21 18:39 | 53.99155 | -3.22189 | 31378 ft | 439 kts | 170° |
| 2026-04-21 18:40 | 53.93362 | -3.18631 | 31366 ft | 444 kts | 163° |
| 2026-04-21 18:40 | 53.88581 | -3.15443 | 31379 ft | 444 kts | 163° |
| 2026-04-21 18:41 | 53.81844 | -3.11022 | 31382 ft | 445 kts | 163° |
| 2026-04-21 18:41 | 53.76055 | -3.07296 | 31378 ft | 445 kts | 163° |
| 2026-04-21 18:42 | 53.70249 | -3.03588 | 31363 ft | 446 kts | 164° |
| 2026-04-21 18:42 | 53.64466 | -2.99907 | 31375 ft | 446 kts | 163° |
| 2026-04-21 18:43 | 53.58646 | -2.96211 | 31376 ft | 447 kts | 164° |
| 2026-04-21 18:43 | 53.52822 | -2.92523 | 31380 ft | 447 kts | 164° |
| 2026-04-21 18:44 | 53.47001 | -2.88847 | 31380 ft | 447 kts | 164° |
| 2026-04-21 18:44 | 53.41146 | -2.85160 | 31375 ft | 446 kts | 164° |
| 2026-04-21 18:45 | 53.35337 | -2.81514 | 31369 ft | 445 kts | 164° |
| 2026-04-21 18:45 | 53.29589 | -2.77916 | 31378 ft | 445 kts | 164° |
| 2026-04-21 18:46 | 53.23757 | -2.74276 | 31377 ft | 445 kts | 164° |
| 2026-04-21 18:46 | 53.17946 | -2.70660 | 31369 ft | 444 kts | 164° |
| 2026-04-21 18:47 | 53.12153 | -2.67066 | 31364 ft | 444 kts | 164° |
| 2026-04-21 18:47 | 53.06361 | -2.63482 | 31364 ft | 444 kts | 164° |
| 2026-04-21 18:48 | 53.00576 | -2.59912 | 31359 ft | 443 kts | 164° |
| 2026-04-21 18:48 | 52.94866 | -2.56395 | 31040 ft | 431 kts | 164° |
| 2026-04-21 18:48 | 52.92077 | -2.54681 | 30748 ft | 426 kts | 164° |
| 2026-04-21 18:49 | 52.89306 | -2.52983 | 30415 ft | 423 kts | 164° |
| 2026-04-21 18:49 | 52.86551 | -2.51297 | 30034 ft | 421 kts | 164° |
| 2026-04-21 18:49 | 52.84736 | -2.50188 | 29772 ft | 419 kts | 164° |
| 2026-04-21 18:49 | 52.81119 | -2.47869 | 29281 ft | 417 kts | 158° |
| 2026-04-21 18:50 | 52.78606 | -2.45485 | 28921 ft | 417 kts | 149° |
| 2026-04-21 18:50 | 52.76214 | -2.42788 | 28575 ft | 415 kts | 147° |
| 2026-04-21 18:50 | 52.73843 | -2.40079 | 28198 ft | 413 kts | 148° |
| 2026-04-21 18:50 | 52.71479 | -2.37411 | 27880 ft | 410 kts | 148° |
| 2026-04-21 18:51 | 52.69118 | -2.34792 | 27521 ft | 408 kts | 148° |
| 2026-04-21 18:51 | 52.66752 | -2.32192 | 27171 ft | 408 kts | 148° |
| 2026-04-21 18:51 | 52.64388 | -2.29603 | 26819 ft | 407 kts | 148° |
| 2026-04-21 18:51 | 52.62040 | -2.27032 | 26465 ft | 405 kts | 148° |
| 2026-04-21 18:52 | 52.59707 | -2.24480 | 26113 ft | 403 kts | 148° |
| 2026-04-21 18:52 | 52.57372 | -2.21927 | 25773 ft | 400 kts | 148° |
| 2026-04-21 18:52 | 52.55059 | -2.19400 | 25427 ft | 398 kts | 148° |
| 2026-04-21 18:52 | 52.52755 | -2.16886 | 25075 ft | 397 kts | 148° |
| 2026-04-21 18:53 | 52.50459 | -2.14384 | 24722 ft | 395 kts | 148° |
| 2026-04-21 18:53 | 52.48174 | -2.11897 | 24373 ft | 394 kts | 148° |
| 2026-04-21 18:53 | 52.46672 | -2.10263 | 24159 ft | 393 kts | 148° |
| 2026-04-21 18:53 | 52.43621 | -2.06950 | 23641 ft | 391 kts | 148° |
| 2026-04-21 18:54 | 52.41355 | -2.04494 | 23262 ft | 389 kts | 148° |
| 2026-04-21 18:54 | 52.39106 | -2.02058 | 22895 ft | 387 kts | 148° |
| 2026-04-21 18:54 | 52.37600 | -2.00427 | 22656 ft | 385 kts | 148° |
| 2026-04-21 18:54 | 52.34650 | -1.97241 | 22244 ft | 379 kts | 147° |
| 2026-04-21 18:55 | 52.33169 | -1.95644 | 22011 ft | 377 kts | 147° |
| 2026-04-21 18:55 | 52.30986 | -1.93291 | 21673 ft | 374 kts | 147° |
| 2026-04-21 18:55 | 52.28851 | -1.90994 | 21357 ft | 370 kts | 147° |
| 2026-04-21 18:55 | 52.26672 | -1.88703 | 21020 ft | 367 kts | 150° |
| 2026-04-21 18:56 | 52.24401 | -1.86881 | 20752 ft | 361 kts | 157° |
| 2026-04-21 18:56 | 52.22096 | -1.85287 | 20423 ft | 358 kts | 158° |
| 2026-04-21 18:56 | 52.19799 | -1.83746 | 20100 ft | 356 kts | 158° |
| 2026-04-21 18:56 | 52.17522 | -1.82216 | 19788 ft | 353 kts | 158° |
| 2026-04-21 18:57 | 52.15266 | -1.80684 | 19465 ft | 350 kts | 157° |
| 2026-04-21 18:57 | 52.13022 | -1.79147 | 19146 ft | 348 kts | 156° |
| 2026-04-21 18:57 | 52.10809 | -1.77621 | 18834 ft | 344 kts | 156° |
| 2026-04-21 18:57 | 52.08616 | -1.76104 | 18519 ft | 341 kts | 156° |
| 2026-04-21 18:58 | 52.06441 | -1.74599 | 18170 ft | 337 kts | 155° |
| 2026-04-21 18:58 | 52.04295 | -1.73113 | 17859 ft | 333 kts | 155° |
| 2026-04-21 18:58 | 52.02176 | -1.71647 | 17520 ft | 329 kts | 155° |
| 2026-04-21 18:58 | 52.00075 | -1.70194 | 17191 ft | 327 kts | 155° |
| 2026-04-21 18:59 | 51.97990 | -1.68754 | 16870 ft | 323 kts | 155° |
| 2026-04-21 18:59 | 51.95930 | -1.67332 | 16552 ft | 321 kts | 155° |
| 2026-04-21 18:59 | 51.93887 | -1.65922 | 16240 ft | 318 kts | 155° |
| 2026-04-21 18:59 | 51.91860 | -1.64526 | 15916 ft | 315 kts | 155° |
| 2026-04-21 19:00 | 51.89849 | -1.63143 | 15603 ft | 313 kts | 155° |
| 2026-04-21 19:00 | 51.87851 | -1.61771 | 15287 ft | 311 kts | 153° |
| 2026-04-21 19:00 | 51.85931 | -1.60175 | 14880 ft | 310 kts | 147° |
| 2026-04-21 19:00 | 51.84086 | -1.58371 | 14499 ft | 310 kts | 146° |
| 2026-04-21 19:01 | 51.82249 | -1.56531 | 14106 ft | 310 kts | 146° |
| 2026-04-21 19:01 | 51.80414 | -1.54710 | 13665 ft | 311 kts | 145° |
| 2026-04-21 19:01 | 51.78561 | -1.52893 | 13250 ft | 310 kts | 146° |
| 2026-04-21 19:01 | 51.76712 | -1.51100 | 12832 ft | 310 kts | 146° |
| 2026-04-21 19:02 | 51.74839 | -1.49296 | 12420 ft | 309 kts | 146° |
| 2026-04-21 19:02 | 51.72993 | -1.47525 | 12010 ft | 308 kts | 146° |
| 2026-04-21 19:02 | 51.71153 | -1.45767 | 11626 ft | 307 kts | 147° |
| 2026-04-21 19:02 | 51.69247 | -1.44233 | 11351 ft | 306 kts | 160° |
| 2026-04-21 19:03 | 51.67178 | -1.43732 | 11302 ft | 297 kts | 172° |
| 2026-04-21 19:03 | 51.65158 | -1.43503 | 11286 ft | 286 kts | 173° |
| 2026-04-21 19:03 | 51.63190 | -1.43290 | 11284 ft | 281 kts | 173° |
| 2026-04-21 19:03 | 51.61238 | -1.43070 | 11297 ft | 282 kts | 172° |
| 2026-04-21 19:04 | 51.59274 | -1.42836 | 11308 ft | 285 kts | 172° |
| 2026-04-21 19:04 | 51.57288 | -1.42589 | 11299 ft | 287 kts | 172° |
| 2026-04-21 19:04 | 51.55289 | -1.42336 | 11304 ft | 289 kts | 172° |
| 2026-04-21 19:04 | 51.53280 | -1.42078 | 11301 ft | 290 kts | 172° |
| 2026-04-21 19:05 | 51.51266 | -1.41816 | 11289 ft | 291 kts | 172° |
| 2026-04-21 19:05 | 51.49264 | -1.41555 | 11289 ft | 290 kts | 172° |
| 2026-04-21 19:05 | 51.47247 | -1.41290 | 11247 ft | 289 kts | 172° |
| 2026-04-21 19:05 | 51.45225 | -1.41023 | 11011 ft | 292 kts | 172° |
| 2026-04-21 19:06 | 51.43202 | -1.40756 | 10766 ft | 290 kts | 172° |
| 2026-04-21 19:06 | 51.41203 | -1.40493 | 10509 ft | 287 kts | 171° |
| 2026-04-21 19:06 | 51.39225 | -1.40233 | 10265 ft | 283 kts | 172° |
| 2026-04-21 19:06 | 51.37273 | -1.39976 | 10004 ft | 280 kts | 171° |
| 2026-04-21 19:07 | 51.35336 | -1.39721 | 9732 ft | 277 kts | 171° |
| 2026-04-21 19:07 | 51.33425 | -1.39469 | 9463 ft | 275 kts | 171° |
| 2026-04-21 19:07 | 51.31526 | -1.39219 | 9199 ft | 273 kts | 171° |
| 2026-04-21 19:07 | 51.29635 | -1.38970 | 8929 ft | 271 kts | 171° |
| 2026-04-21 19:08 | 51.27773 | -1.38725 | 8670 ft | 268 kts | 171° |
| 2026-04-21 19:08 | 51.25925 | -1.38482 | 8410 ft | 266 kts | 171° |
| 2026-04-21 19:08 | 51.24084 | -1.38239 | 8306 ft | 265 kts | 171° |
| 2026-04-21 19:08 | 51.22231 | -1.37994 | 8274 ft | 268 kts | 171° |
| 2026-04-21 19:09 | 51.20379 | -1.37751 | 8270 ft | 265 kts | 171° |
| 2026-04-21 19:09 | 51.18550 | -1.37512 | 8260 ft | 263 kts | 171° |
| 2026-04-21 19:09 | 51.16720 | -1.37272 | 8265 ft | 264 kts | 171° |
| 2026-04-21 19:09 | 51.14894 | -1.37032 | 8271 ft | 264 kts | 170° |
| 2026-04-21 19:10 | 51.13061 | -1.36791 | 8258 ft | 264 kts | 171° |
| 2026-04-21 19:10 | 51.11235 | -1.36552 | 8234 ft | 264 kts | 171° |
| 2026-04-21 19:10 | 51.09381 | -1.36309 | 7970 ft | 269 kts | 171° |
| 2026-04-21 19:10 | 51.07515 | -1.36065 | 7719 ft | 268 kts | 171° |
| 2026-04-21 19:11 | 51.05668 | -1.35826 | 7461 ft | 265 kts | 171° |
| 2026-04-21 19:11 | 51.03833 | -1.35588 | 7207 ft | 262 kts | 171° |
| 2026-04-21 19:11 | 51.02028 | -1.35353 | 6961 ft | 260 kts | 170° |
| 2026-04-21 19:11 | 51.00233 | -1.35119 | 6718 ft | 258 kts | 170° |
| 2026-04-21 19:12 | 50.99024 | -1.35000 | 6546 ft | 258 kts | 176° |
| 2026-04-21 19:12 | 50.96763 | -1.36256 | 6173 ft | 271 kts | 214° |
| 2026-04-21 19:12 | 50.95590 | -1.38617 | 5911 ft | 277 kts | 243° |
| 2026-04-21 19:12 | 50.94923 | -1.41470 | 5688 ft | 276 kts | 249° |
| 2026-04-21 19:13 | 50.94338 | -1.44366 | 5426 ft | 276 kts | 250° |
| 2026-04-21 19:13 | 50.93768 | -1.47270 | 5166 ft | 275 kts | 250° |
| 2026-04-21 19:13 | 50.93208 | -1.50159 | 5060 ft | 274 kts | 250° |
| 2026-04-21 19:13 | 50.92650 | -1.53045 | 5032 ft | 274 kts | 250° |
| 2026-04-21 19:14 | 50.92088 | -1.55942 | 5030 ft | 276 kts | 250° |
| 2026-04-21 19:14 | 50.91521 | -1.58864 | 5028 ft | 277 kts | 250° |
| 2026-04-21 19:14 | 50.90957 | -1.61774 | 5012 ft | 276 kts | 250° |
| 2026-04-21 19:14 | 50.90388 | -1.64706 | 4991 ft | 274 kts | 250° |
| 2026-04-21 19:15 | 50.89835 | -1.67570 | 4974 ft | 276 kts | 250° |
| 2026-04-21 19:15 | 50.89269 | -1.70500 | 4810 ft | 279 kts | 250° |
| 2026-04-21 19:15 | 50.88688 | -1.73484 | 4683 ft | 281 kts | 250° |
| 2026-04-21 19:15 | 50.88110 | -1.76438 | 4549 ft | 279 kts | 250° |
| 2026-04-21 19:16 | 50.87540 | -1.79361 | 4411 ft | 277 kts | 250° |
| 2026-04-21 19:16 | 50.86969 | -1.82268 | 4280 ft | 276 kts | 250° |
| 2026-04-21 19:16 | 50.86397 | -1.85172 | 4150 ft | 276 kts | 250° |
| 2026-04-21 19:16 | 50.85822 | -1.88074 | 4052 ft | 276 kts | 250° |
| 2026-04-21 19:17 | 50.84665 | -1.93971 | 3993 ft | 281 kts | 250° |
| 2026-04-21 19:17 | 50.84090 | -1.96929 | 3991 ft | 280 kts | 250° |
| 2026-04-21 19:17 | 50.83525 | -1.99862 | 3937 ft | 280 kts | 250° |
| 2026-04-21 19:18 | 50.82953 | -2.02825 | 3667 ft | 282 kts | 250° |
| 2026-04-21 19:18 | 50.82376 | -2.05764 | 3422 ft | 280 kts | 250° |
| 2026-04-21 19:18 | 50.81791 | -2.08697 | 3139 ft | 278 kts | 250° |
| 2026-04-21 19:18 | 50.81214 | -2.11572 | 3008 ft | 271 kts | 250° |
| 2026-04-21 19:19 | 50.80662 | -2.14332 | 3012 ft | 253 kts | 250° |
| 2026-04-21 19:19 | 50.80153 | -2.16891 | 2991 ft | 237 kts | 250° |
| 2026-04-21 19:19 | 50.79677 | -2.19290 | 2975 ft | 219 kts | 250° |
| 2026-04-21 19:19 | 50.79229 | -2.21571 | 2991 ft | 216 kts | 250° |
| 2026-04-21 19:20 | 50.78579 | -2.23660 | 2974 ft | 208 kts | 220° |
| 2026-04-21 19:20 | 50.77392 | -2.24727 | 2979 ft | 191 kts | 180° |
| 2026-04-21 19:20 | 50.76158 | -2.24430 | 2860 ft | 174 kts | 140° |
| 2026-04-21 19:20 | 50.75447 | -2.23044 | 2733 ft | 160 kts | 104° |
| 2026-04-21 19:21 | 50.75149 | -2.21367 | 2547 ft | 158 kts | 101° |
| 2026-04-21 19:21 | 50.74877 | -2.19712 | 2367 ft | 155 kts | 100° |
| 2026-04-21 19:21 | 50.74606 | -2.18064 | 2188 ft | 155 kts | 100° |
| 2026-04-21 19:21 | 50.74339 | -2.16420 | 2006 ft | 154 kts | 100° |
| 2026-04-21 19:22 | 50.74077 | -2.14781 | 1820 ft | 154 kts | 100° |
| 2026-04-21 19:22 | 50.73811 | -2.13128 | 1628 ft | 156 kts | 100° |
| 2026-04-21 19:22 | 50.73587 | -2.11412 | 1520 ft | 157 kts | 85° |
| 2026-04-21 19:22 | 50.73880 | -2.09794 | 1501 ft | 153 kts | 72° |
| 2026-04-21 19:23 | 50.74093 | -2.08127 | 1495 ft | 156 kts | 78° |
| 2026-04-21 19:23 | 50.74349 | -2.06443 | 1492 ft | 159 kts | 76° |
| 2026-04-21 19:23 | 50.74625 | -2.04766 | 1506 ft | 158 kts | 76° |
| 2026-04-21 19:23 | 50.74901 | -2.03092 | 1495 ft | 157 kts | 76° |
| 2026-04-21 19:24 | 50.75175 | -2.01428 | 1498 ft | 156 kts | 76° |
| 2026-04-21 19:24 | 50.75446 | -1.99775 | 1489 ft | 155 kts | 76° |
| 2026-04-21 19:24 | 50.75715 | -1.98141 | 1483 ft | 153 kts | 76° |
| 2026-04-21 19:24 | 50.75980 | -1.96530 | 1495 ft | 152 kts | 77° |
| 2026-04-21 19:25 | 50.76252 | -1.94876 | 1313 ft | 156 kts | 75° |
| 2026-04-21 19:25 | 50.76517 | -1.93273 | 1090 ft | 144 kts | 76° |
| 2026-04-21 19:25 | 50.76764 | -1.91779 | 898 ft | 138 kts | 75° |
| 2026-04-21 19:25 | 50.77004 | -1.90329 | 755 ft | 134 kts | 75° |
| 2026-04-21 19:26 | 50.77236 | -1.88922 | 573 ft | 127 kts | 75° |
| 2026-04-21 19:26 | 50.77453 | -1.87611 | 386 ft | 121 kts | 76° |
| 2026-04-21 19:26 | 50.77590 | -1.86746 | 248 ft | 129 kts | 77° |
| 2026-04-21 19:26 | 50.77821 | -1.85399 | 90 ft | 125 kts | 77° |
| 2026-04-21 19:27 | 50.78016 | -1.84204 | 40 ft | 75 kts | 75° |
| 2026-04-21 19:27 | 50.78095 | -1.83734 | 44 ft | 35 kts | 75° |
| 2026-04-21 19:27 | 50.78152 | -1.83394 | 47 ft | 30 kts | 75° |
| 2026-04-21 19:27 | 50.78197 | -1.83129 | 45 ft | 16 kts | 75° |
| 2026-04-21 19:28 | 50.78183 | -1.83044 | 45 ft | 5 kts | 154° |
| 2026-04-21 19:28 | 50.78147 | -1.83054 | 43 ft | 6 kts | 215° |
| 2026-04-21 19:28 | 50.78120 | -1.83105 | 45 ft | 6 kts | 234° |
| 2026-04-21 19:28 | 50.78096 | -1.83161 | 45 ft | 6 kts | 236° |
| 2026-04-21 19:29 | 50.78072 | -1.83216 | 45 ft | 7 kts | 236° |
| 2026-04-21 19:29 | 50.78042 | -1.83302 | 46 ft | 12 kts | 243° |
| 2026-04-21 19:29 | 50.77996 | -1.83440 | 45 ft | 13 kts | 235° |
| 2026-04-21 19:29 | 50.77938 | -1.83490 | 45 ft | 0 kts | 178° |
| 2026-04-21 19:30 | 50.77937 | -1.83490 | 45 ft | 0 kts | 178° |
| 2026-04-21 19:30 | 50.77928 | -1.83480 | 44 ft | 4 kts | 131° |
| 2026-04-21 19:30 | 50.77924 | -1.83424 | 45 ft | 5 kts | 87° |
| 2026-04-21 19:30 | 50.77925 | -1.83392 | 45 ft | 0 kts | 87° |